Time;durP1;ratioP1;P1;durP2;ratioP2;P2;SDS_P1;SDS_P2;PMS_P1;PMS_P2;Temp;Humidity;BMP_temperature;BMP_pressure;BME280_temperature;BME280_humidity;BME280_pressure;Samples;Min_cycle;Max_cycle;Signal;HPM_P1;HPM_P2
2023/07/15 00:00:31;;;;;;;;;1.00;1.00;;;;;27.77;34.85;99862.91;5034332;28;45834;-85
2023/07/15 00:02:56;;;;;;;;;1.00;1.00;;;;;27.74;34.82;99866.09;5033892;28;45770;-82
2023/07/15 00:05:32;;;;;;;;;1.00;1.00;;;;;27.71;34.98;99863.84;5033928;28;45580;-82
2023/07/15 00:07:57;;;;;;;;;1.00;0.25;;;;;27.67;35.26;99865.38;5035012;28;45658;-85
2023/07/15 00:10:23;;;;;;;;;0.00;0.00;;;;;27.62;35.52;99854.53;5038980;28;45763;-78
2023/07/15 00:12:48;;;;;;;;;1.50;1.00;;;;;27.58;35.44;99848.81;5038041;28;46392;-79
2023/07/15 00:15:14;;;;;;;;;0.00;0.00;;;;;27.51;34.93;99851.63;5037225;28;45824;-77
2023/07/15 00:17:40;;;;;;;;;1.00;1.00;;;;;27.51;35.53;99853.50;5037013;28;45538;-78
2023/07/15 00:20:14;;;;;;;;;0.50;0.50;;;;;27.44;35.89;99845.53;5036665;28;45695;-80
2023/07/15 00:22:41;;;;;;;;;1.25;1.25;;;;;27.44;36.19;99853.59;5036350;28;45562;-78
2023/07/15 00:28:28;;;;;;;;;1.00;1.00;;;;;27.37;35.88;99852.88;5037057;28;45638;-80
2023/07/15 00:30:57;;;;;;;;;1.00;1.00;;;;;27.36;36.10;99866.59;5038655;28;45457;-79
2023/07/15 00:33:23;;;;;;;;;0.00;0.00;;;;;27.31;36.61;99869.19;5037970;28;46310;-82
2023/07/15 00:35:49;;;;;;;;;5.00;5.00;;;;;27.25;36.77;99862.88;5037885;28;45935;-81
2023/07/15 00:38:14;;;;;;;;;8.00;7.00;;;;;27.21;37.10;99877.84;5040113;28;45742;-79
2023/07/15 00:40:45;;;;;;;;;10.00;10.00;;;;;27.16;36.73;99872.34;5040832;28;45497;-78
2023/07/15 00:43:49;;;;;;;;;16.00;12.25;;;;;27.12;36.95;99872.00;5037105;28;46939;-81
2023/07/15 00:46:18;;;;;;;;;32.00;29.25;;;;;27.07;37.53;99868.38;5037445;28;45984;-79
2023/07/15 00:49:05;;;;;;;;;27.50;24.25;;;;;27.00;38.10;99875.72;5038804;28;45769;-80
2023/07/15 00:51:35;;;;;;;;;16.50;15.25;;;;;26.92;38.15;99868.03;5038534;28;45711;-78
2023/07/15 00:54:03;;;;;;;;;9.00;8.00;;;;;26.93;38.74;99877.75;5038336;28;45803;-86
2023/07/15 00:56:31;;;;;;;;;4.25;4.25;;;;;26.88;39.04;99875.75;5039962;28;46054;-81
2023/07/15 00:58:57;;;;;;;;;4.00;3.50;;;;;26.87;39.28;99873.25;5042613;28;45630;-81
2023/07/15 01:01:23;;;;;;;;;4.50;2.50;;;;;26.82;39.09;99881.22;5055151;28;45798;-80
2023/07/15 01:03:48;;;;;;;;;2.00;1.50;;;;;26.78;39.53;99869.25;5037724;28;45565;-78
2023/07/15 01:06:14;;;;;;;;;1.50;1.00;;;;;26.77;39.62;99878.41;5038105;28;45650;-83
2023/07/15 01:08:40;;;;;;;;;2.00;2.00;;;;;26.70;39.79;99881.19;5037823;28;45558;-81
2023/07/15 01:11:06;;;;;;;;;1.00;1.00;;;;;26.70;40.23;99883.88;5037067;28;45758;-86
2023/07/15 01:13:32;;;;;;;;;0.75;0.75;;;;;26.67;40.95;99873.56;5037491;28;46282;-79
2023/07/15 01:15:58;;;;;;;;;1.00;0.25;;;;;26.62;41.21;99874.28;5036683;28;45958;-82
2023/07/15 01:18:23;;;;;;;;;1.00;1.00;;;;;26.59;42.06;99863.19;5036973;28;45637;-80
2023/07/15 01:20:50;;;;;;;;;0.75;0.00;;;;;26.51;42.31;99860.81;5036674;28;45543;-79
2023/07/15 01:23:16;;;;;;;;;0.00;0.00;;;;;26.48;41.94;99869.34;5038819;28;46276;-79
2023/07/15 01:29:03;;;;;;;;;1.00;1.00;;;;;26.35;42.73;99866.84;5037080;28;45623;-80
2023/07/15 01:31:30;;;;;;;;;0.00;0.00;;;;;26.28;43.22;99875.84;5037100;28;45715;-78
2023/07/15 01:33:55;;;;;;;;;0.00;0.00;;;;;26.24;43.51;99865.78;5037117;28;46809;-81
2023/07/15 01:36:21;;;;;;;;;1.00;0.50;;;;;26.22;43.76;99865.16;5036358;28;48378;-78
2023/07/15 01:38:48;;;;;;;;;1.00;0.00;;;;;26.18;43.47;99875.53;5037513;28;45530;-79
2023/07/15 01:41:13;;;;;;;;;1.00;1.00;;;;;26.14;43.86;99863.59;5036620;28;45826;-79
2023/07/15 01:43:38;;;;;;;;;0.00;0.00;;;;;26.06;44.13;99850.53;5037717;28;46812;-79
2023/07/15 01:46:04;;;;;;;;;0.50;0.50;;;;;26.05;44.12;99853.44;5039005;28;46109;-78
2023/07/15 01:48:29;;;;;;;;;1.00;1.00;;;;;26.01;44.10;99850.38;5036119;28;45491;-80
2023/07/15 01:50:56;;;;;;;;;1.00;1.00;;;;;25.96;44.26;99850.25;5035828;28;45469;-78
2023/07/15 01:53:21;;;;;;;;;0.00;0.00;;;;;25.97;44.39;99835.75;5035880;28;45587;-78
2023/07/15 01:59:10;;;;;;;;;0.25;0.25;;;;;25.97;44.56;99834.94;5023787;28;45888;-79
2023/07/15 02:01:36;;;;;;;;;0.50;0.25;;;;;25.94;44.98;99830.03;5033860;28;45524;-76
2023/07/15 02:04:01;;;;;;;;;2.00;1.00;;;;;25.89;45.49;99833.41;5035202;28;46469;-78
2023/07/15 02:06:26;;;;;;;;;0.00;0.00;;;;;25.88;45.12;99832.59;5035181;28;46002;-78
2023/07/15 02:08:51;;;;;;;;;0.50;0.00;;;;;25.82;45.63;99825.44;5034986;28;45689;-78
2023/07/15 02:11:17;;;;;;;;;0.00;0.00;;;;;25.81;45.80;99829.16;5035366;28;45618;-78
2023/07/15 02:13:42;;;;;;;;;0.50;0.50;;;;;25.75;46.11;99816.66;5035014;28;46399;-78
2023/07/15 02:16:07;;;;;;;;;1.00;1.00;;;;;25.75;46.08;99822.00;5034935;28;46256;-78
2023/07/15 02:18:33;;;;;;;;;1.25;1.00;;;;;25.75;46.21;99826.59;5035223;28;45567;-79
2023/07/15 02:20:58;;;;;;;;;1.00;1.00;;;;;25.68;46.64;99813.25;5035466;28;45696;-76
2023/07/15 02:23:23;;;;;;;;;1.00;1.00;;;;;25.69;46.85;99824.81;5034946;28;45653;-78
2023/07/15 02:29:11;;;;;;;;;1.00;1.00;;;;;25.68;46.83;99844.63;5034542;28;45535;-77
2023/07/15 02:31:36;;;;;;;;;1.00;0.00;;;;;25.67;46.86;99837.63;5034752;28;45787;-79
2023/07/15 02:34:02;;;;;;;;;1.00;0.00;;;;;25.66;47.15;99827.94;5033536;28;45586;-79
2023/07/15 02:36:28;;;;;;;;;1.00;0.00;;;;;25.63;46.88;99823.84;5034468;28;45989;-80
2023/07/15 02:38:54;;;;;;;;;1.00;1.00;;;;;25.65;47.71;99826.28;5034625;28;45707;-78
2023/07/15 02:45:12;;;;;;;;;1.25;1.00;;;;;25.61;48.15;99862.66;5034227;28;45547;-78
2023/07/15 02:47:39;;;;;;;;;0.00;0.00;;;;;25.61;47.72;99857.31;5034224;28;45935;-80
2023/07/15 02:50:07;;;;;;;;;0.00;0.00;;;;;25.63;47.55;99849.84;5033004;28;45670;-81
2023/07/15 02:52:33;;;;;;;;;1.00;1.00;;;;;25.61;47.93;99843.88;5034574;28;45475;-79
2023/07/15 02:55:00;;;;;;;;;1.75;1.00;;;;;25.64;47.83;99862.25;5032803;28;46966;-78
2023/07/15 02:57:26;;;;;;;;;1.50;1.00;;;;;25.66;47.96;99850.22;5034293;28;45578;-79
2023/07/15 02:59:52;;;;;;;;;1.00;1.00;;;;;25.68;47.55;99855.38;5034160;28;45667;-78
2023/07/15 03:02:17;;;;;;;;;1.25;1.25;;;;;25.64;47.83;99841.56;5037015;28;45580;-80
2023/07/15 03:04:43;;;;;;;;;1.00;0.00;;;;;25.66;47.76;99833.28;5035996;28;45878;-78
2023/07/15 03:07:15;;;;;;;;;1.00;1.00;;;;;25.66;48.23;99838.66;5034200;28;45547;-80
2023/07/15 03:09:40;;;;;;;;;1.00;0.50;;;;;25.64;48.31;99832.72;5033969;28;45630;-78
2023/07/15 03:12:09;;;;;;;;;0.00;0.00;;;;;25.61;48.89;99850.06;5034186;28;45774;-84
2023/07/15 03:14:35;;;;;;;;;1.00;0.75;;;;;25.59;48.62;99854.84;5034061;28;46446;-82
2023/07/15 03:17:01;;;;;;;;;0.00;0.00;;;;;25.57;49.29;99866.84;5034095;28;46118;-80
2023/07/15 03:19:26;;;;;;;;;0.25;0.25;;;;;25.53;49.29;99839.63;5034286;28;45703;-79
2023/07/15 03:21:52;;;;;;;;;1.25;0.75;;;;;25.50;49.55;99843.56;5034198;28;45730;-83
2023/07/15 03:24:17;;;;;;;;;0.50;0.25;;;;;25.45;49.40;99838.06;5032346;28;46511;-79
2023/07/15 03:30:09;;;;;;;;;2.00;1.00;;;;;25.38;49.79;99834.63;5033714;28;45547;-78
2023/07/15 03:32:36;;;;;;;;;2.00;0.75;;;;;25.35;49.78;99845.00;5034134;28;45781;-81
2023/07/15 03:35:03;;;;;;;;;1.00;1.00;;;;;25.29;50.39;99854.75;5033917;28;46507;-80
2023/07/15 03:37:29;;;;;;;;;0.75;0.75;;;;;25.26;50.44;99849.03;5033882;28;46292;-81
2023/07/15 03:39:54;;;;;;;;;1.00;1.00;;;;;25.20;50.83;99844.53;5034104;28;45733;-77
2023/07/15 03:42:20;;;;;;;;;2.00;1.00;;;;;25.18;50.60;99851.97;5034227;28;45687;-82
2023/07/15 03:44:45;;;;;;;;;2.00;1.75;;;;;25.18;50.83;99863.53;5039447;28;45630;-79
2023/07/15 03:47:10;;;;;;;;;1.00;1.00;;;;;25.14;51.25;99858.84;5039297;28;46016;-79
2023/07/15 03:49:36;;;;;;;;;1.75;1.00;;;;;25.11;50.60;99862.75;5037428;28;45660;-78
2023/07/15 03:52:01;;;;;;;;;0.00;0.00;;;;;25.07;51.23;99856.22;5037301;28;45585;-79
2023/07/15 03:54:26;;;;;;;;;1.50;0.00;;;;;25.06;51.30;99857.25;5037668;28;46443;-79
2023/07/15 04:00:17;;;;;;;;;0.00;0.00;;;;;24.99;51.29;99819.78;5027801;28;45918;-81
2023/07/15 04:02:46;;;;;;;;;0.75;0.00;;;;;24.98;51.71;99803.94;5037345;28;45627;-78
2023/07/15 04:05:11;;;;;;;;;1.00;0.50;;;;;24.94;51.79;99805.44;5038126;28;46594;-78
2023/07/15 04:07:37;;;;;;;;;1.00;1.00;;;;;24.91;52.00;99819.25;5037178;28;45720;-80
2023/07/15 04:10:03;;;;;;;;;2.00;0.25;;;;;24.84;51.93;99835.38;5037067;28;45595;-80
2023/07/15 04:12:28;;;;;;;;;1.00;1.00;;;;;24.74;52.39;99855.66;5037241;28;45766;-82
2023/07/15 04:14:53;;;;;;;;;0.00;0.00;;;;;24.72;52.61;99901.47;5036799;28;46472;-78
2023/07/15 04:17:19;;;;;;;;;0.00;0.00;;;;;24.69;52.95;99904.56;5036720;28;46196;-77
2023/07/15 04:19:44;;;;;;;;;0.50;0.00;;;;;24.64;52.74;99861.53;5036988;28;45531;-80
2023/07/15 04:22:10;;;;;;;;;1.00;1.00;;;;;24.61;52.61;99870.84;5036996;28;45711;-79
2023/07/15 04:24:35;;;;;;;;;0.75;0.00;;;;;24.63;53.17;99870.59;5036856;28;45768;-81
2023/07/15 04:30:22;;;;;;;;;1.00;1.00;;;;;24.63;52.71;99836.59;5036360;28;45579;-78
2023/07/15 04:32:48;;;;;;;;;1.00;0.50;;;;;24.63;52.51;99836.59;5036822;28;45571;-78
2023/07/15 04:35:13;;;;;;;;;0.50;0.50;;;;;24.66;52.85;99813.91;5034688;28;47766;-78
2023/07/15 04:37:39;;;;;;;;;0.25;0.00;;;;;24.66;52.69;99806.69;5036350;28;46157;-78
2023/07/15 04:40:05;;;;;;;;;1.00;0.25;;;;;24.61;52.81;99795.00;5036534;28;45712;-77
2023/07/15 04:42:30;;;;;;;;;0.00;0.00;;;;;24.55;53.40;99804.72;5036742;28;45743;-78
2023/07/15 04:44:55;;;;;;;;;1.25;1.00;;;;;24.56;52.76;99808.22;5036161;28;45965;-78
2023/07/15 04:47:21;;;;;;;;;0.00;0.00;;;;;24.55;53.00;99814.63;5036489;28;45629;-79
2023/07/15 04:49:46;;;;;;;;;0.00;0.00;;;;;24.51;53.21;99818.75;5036738;28;45635;-79
2023/07/15 04:52:12;;;;;;;;;0.00;0.00;;;;;24.46;53.51;99822.09;5038754;28;45515;-79
2023/07/15 04:54:37;;;;;;;;;1.00;1.00;;;;;24.39;53.42;99815.16;5035875;28;46366;-80
2023/07/15 05:00:27;;;;;;;;;1.00;0.25;;;;;24.37;53.82;99823.41;5034032;28;45565;-79
2023/07/15 05:02:52;;;;;;;;;1.00;0.50;;;;;24.37;54.42;99814.56;5036025;28;45547;-79
2023/07/15 05:05:19;;;;;;;;;1.25;1.00;;;;;24.34;53.84;99831.06;5036024;28;46576;-79
2023/07/15 05:07:45;;;;;;;;;1.75;0.50;;;;;24.32;54.79;99846.53;5035388;28;46187;-79
2023/07/15 05:10:11;;;;;;;;;0.00;0.00;;;;;24.30;54.77;99824.47;5034461;28;45623;-80
2023/07/15 05:15:58;;;;;;;;;0.75;0.75;;;;;24.24;54.71;99824.31;5035552;28;45558;-80
2023/07/15 05:18:24;;;;;;;;;0.25;0.25;;;;;24.21;54.67;99814.06;5035797;28;45635;-79
2023/07/15 05:20:50;;;;;;;;;1.00;1.00;;;;;24.18;54.43;99833.22;5035470;28;45714;-77
2023/07/15 05:23:16;;;;;;;;;0.75;0.75;;;;;24.15;54.87;99819.41;5035898;28;45646;-78
2023/07/15 05:25:42;;;;;;;;;1.50;1.00;;;;;24.11;55.45;99818.22;5035534;28;45965;-77
2023/07/15 05:28:07;;;;;;;;;0.00;0.00;;;;;24.09;55.28;99823.78;5035933;28;45721;-77
2023/07/15 05:30:35;;;;;;;;;1.00;0.25;;;;;24.07;55.21;99825.03;5034418;28;45779;-78
2023/07/15 05:33:00;;;;;;;;;0.50;0.00;;;;;24.12;55.10;99838.59;5035977;28;45755;-77
2023/07/15 05:35:25;;;;;;;;;0.00;0.00;;;;;24.12;55.23;99841.28;5035814;28;46507;-78
2023/07/15 05:37:51;;;;;;;;;1.25;1.00;;;;;24.12;55.17;99833.25;5035822;28;46346;-78
2023/07/15 05:40:16;;;;;;;;;1.00;0.00;;;;;24.14;55.38;99857.91;5035629;28;45616;-78
2023/07/15 05:46:03;;;;;;;;;1.00;1.00;;;;;24.10;55.50;99868.25;5035487;28;45773;-77
2023/07/15 05:48:29;;;;;;;;;0.50;0.00;;;;;24.08;55.51;99864.97;5034575;28;46511;-75
2023/07/15 05:50:54;;;;;;;;;0.00;0.00;;;;;24.06;55.55;99872.41;5035716;28;45788;-81
2023/07/15 05:53:20;;;;;;;;;0.50;0.00;;;;;24.05;55.10;99892.16;5036435;28;45509;-86
2023/07/15 05:55:46;;;;;;;;;0.75;0.75;;;;;24.07;55.55;99900.00;5035439;28;45638;-82
2023/07/15 05:58:11;;;;;;;;;0.50;0.50;;;;;24.06;55.44;99876.94;5035625;28;46270;-81
2023/07/15 06:00:40;;;;;;;;;1.00;1.00;;;;;24.10;55.09;99883.50;5035931;28;45670;-81
2023/07/15 06:03:07;;;;;;;;;1.00;1.00;;;;;24.08;55.08;99897.06;5035418;28;45505;-80
2023/07/15 06:05:32;;;;;;;;;0.75;0.25;;;;;24.07;55.37;99891.97;5035608;28;45595;-79
2023/07/15 06:07:58;;;;;;;;;1.00;1.00;;;;;24.06;55.38;99898.34;5035268;28;45653;-79
2023/07/15 06:10:23;;;;;;;;;2.00;1.25;;;;;24.05;55.20;99892.16;5035440;28;45729;-82
2023/07/15 06:16:10;;;;;;;;;2.50;1.50;;;;;24.08;54.84;99921.16;5035227;28;45473;-83
2023/07/15 06:18:36;;;;;;;;;1.00;1.00;;;;;24.07;54.38;99940.16;5035897;28;45586;-82
2023/07/15 06:21:01;;;;;;;;;1.00;1.00;;;;;24.04;53.99;99933.34;5035795;28;45476;-83
2023/07/15 06:23:27;;;;;;;;;1.00;1.00;;;;;24.02;54.24;99923.91;5036227;28;45729;-83
2023/07/15 06:25:52;;;;;;;;;1.25;1.00;;;;;23.98;54.19;99904.75;5036085;28;45535;-82
2023/07/15 06:31:40;;;;;;;;;1.00;1.00;;;;;24.00;54.52;99925.97;5037580;28;45642;-82
2023/07/15 06:34:06;;;;;;;;;1.50;1.50;;;;;24.02;54.36;99927.38;5034813;28;45535;-85
2023/07/15 06:36:31;;;;;;;;;1.00;1.00;;;;;24.07;53.54;99938.28;5036310;28;46303;-78
2023/07/15 06:38:56;;;;;;;;;1.50;1.00;;;;;24.06;53.58;99935.81;5035994;28;46118;-75
2023/07/15 06:41:22;;;;;;;;;1.00;1.00;;;;;24.02;53.60;99935.41;5038654;28;45599;-76
2023/07/15 06:43:47;;;;;;;;;1.00;1.00;;;;;24.00;53.30;99934.81;5035512;28;45751;-80
2023/07/15 06:46:13;;;;;;;;;1.00;1.00;;;;;23.99;53.17;99951.06;5034808;28;45580;-73
2023/07/15 06:48:38;;;;;;;;;2.00;1.00;;;;;23.94;52.99;99935.66;5034266;28;46427;-76
2023/07/15 06:51:03;;;;;;;;;0.00;0.00;;;;;23.94;53.29;99946.34;5036317;28;45769;-76
2023/07/15 06:53:29;;;;;;;;;2.50;1.50;;;;;23.92;53.24;99934.22;5035767;28;45935;-77
2023/07/15 06:55:54;;;;;;;;;1.00;1.00;;;;;23.90;53.70;99952.34;5034622;28;47190;-75
2023/07/15 07:01:41;;;;;;;;;5.00;3.50;;;;;23.83;53.52;99947.84;5024183;28;45803;-77
2023/07/15 07:04:06;;;;;;;;;3.75;3.75;;;;;23.83;53.75;99942.50;5035017;28;45504;-74
2023/07/15 07:06:32;;;;;;;;;3.00;2.75;;;;;23.82;54.21;99940.84;5033712;28;47371;-74
2023/07/15 07:08:57;;;;;;;;;4.00;3.00;;;;;23.79;53.77;99951.97;5034761;28;46010;-74
2023/07/15 07:11:23;;;;;;;;;2.75;2.25;;;;;23.78;54.25;99939.63;5034334;28;45533;-74
2023/07/15 07:13:48;;;;;;;;;2.00;2.00;;;;;23.76;54.28;99940.84;5035749;28;45595;-74
2023/07/15 07:16:13;;;;;;;;;2.00;2.00;;;;;23.72;53.95;99948.50;5035314;28;46514;-73
2023/07/15 07:18:39;;;;;;;;;1.25;1.00;;;;;23.73;54.41;99941.28;5036615;28;45716;-76
2023/07/15 07:21:04;;;;;;;;;1.00;1.00;;;;;23.76;54.82;99959.59;5040574;28;45672;-74
2023/07/15 07:23:30;;;;;;;;;1.00;1.00;;;;;23.73;54.09;99960.03;5042149;28;45820;-74
2023/07/15 07:25:55;;;;;;;;;1.00;0.50;;;;;23.73;54.03;99947.47;5040776;28;46212;-75
2023/07/15 07:31:42;;;;;;;;;1.00;1.00;;;;;23.71;52.98;99967.41;5040373;28;45761;-75
2023/07/15 07:34:08;;;;;;;;;5.00;4.00;;;;;23.68;53.33;99967.84;5040528;28;45721;-73
2023/07/15 07:36:33;;;;;;;;;1.75;1.00;;;;;23.65;53.51;99979.78;5040420;28;46583;-75
2023/07/15 07:38:58;;;;;;;;;1.00;1.00;;;;;23.62;53.22;99984.72;5040626;28;45899;-75
2023/07/15 07:41:24;;;;;;;;;0.00;0.00;;;;;23.59;52.86;99979.81;5040675;28;45585;-74
2023/07/15 07:47:10;;;;;;;;;1.00;1.00;;;;;23.53;52.85;99986.81;5040193;28;45708;-76
2023/07/15 07:49:35;;;;;;;;;1.00;1.00;;;;;23.53;52.89;99989.50;5040628;28;45556;-74
2023/07/15 07:52:03;;;;;;;;;2.00;0.50;;;;;23.53;52.30;99989.50;5040253;28;45657;-77
2023/07/15 07:54:28;;;;;;;;;1.00;1.00;;;;;23.56;52.40;99981.03;5040953;28;45618;-74
2023/07/15 07:56:53;;;;;;;;;1.00;1.00;;;;;23.58;51.58;99981.66;5040169;28;46307;-73
2023/07/15 07:59:18;;;;;;;;;0.75;0.00;;;;;23.57;51.86;99988.03;5040240;28;45996;-73
2023/07/15 08:01:44;;;;;;;;;2.00;0.50;;;;;23.56;51.80;99977.53;5038749;28;45491;-73
2023/07/15 08:04:10;;;;;;;;;9.75;8.75;;;;;23.56;51.75;99994.41;5040001;28;45915;-74
2023/07/15 08:06:35;;;;;;;;;2.00;2.00;;;;;23.55;51.62;99992.75;5040179;28;46361;-76
2023/07/15 08:09:00;;;;;;;;;1.00;1.00;;;;;23.58;51.35;99995.03;5055249;28;47300;-75
2023/07/15 08:11:26;;;;;;;;;1.00;1.00;;;;;23.60;51.92;99992.13;5038475;28;45695;-78
2023/07/15 08:17:13;;;;;;;;;0.00;0.00;;;;;23.66;51.67;99989.44;5039759;28;46041;-74
2023/07/15 08:19:38;;;;;;;;;1.00;1.00;;;;;23.71;51.36;99991.50;5039921;28;45678;-75
2023/07/15 08:22:04;;;;;;;;;2.00;1.00;;;;;23.74;51.33;99996.44;5040068;28;46145;-75
2023/07/15 08:24:29;;;;;;;;;1.75;1.75;;;;;23.76;51.64;99997.88;5039995;28;45569;-74
2023/07/15 08:26:54;;;;;;;;;0.00;0.00;;;;;23.82;51.67;99990.84;5039574;28;47385;-74
2023/07/15 08:29:20;;;;;;;;;0.00;0.00;;;;;23.85;51.14;99993.13;5040110;28;46117;-75
2023/07/15 08:31:46;;;;;;;;;1.50;1.00;;;;;23.86;51.00;99989.41;5036819;28;45645;-75
2023/07/15 08:34:12;;;;;;;;;0.50;0.50;;;;;23.87;50.74;99999.06;5036980;28;45663;-78
2023/07/15 08:36:37;;;;;;;;;1.00;1.00;;;;;23.85;51.14;99993.13;5036239;28;46676;-78
2023/07/15 08:39:03;;;;;;;;;1.00;1.00;;;;;23.84;50.78;99999.50;5036686;28;46369;-81
2023/07/15 08:41:29;;;;;;;;;1.00;0.25;;;;;23.89;51.16;99998.88;5036590;28;45599;-78
2023/07/15 08:47:23;;;;;;;;;2.75;2.00;;;;;24.03;51.15;99984.41;5036102;28;45990;-79
2023/07/15 08:49:49;;;;;;;;;2.25;0.50;;;;;24.09;50.87;99987.06;5035108;28;47733;-77
2023/07/15 08:52:20;;;;;;;;;2.00;1.00;;;;;24.16;50.50;99985.19;5035114;28;45683;-77
2023/07/15 08:54:48;;;;;;;;;1.00;1.00;;;;;24.20;50.50;99990.97;5036578;28;45755;-78
2023/07/15 08:57:16;;;;;;;;;1.00;1.00;;;;;24.25;50.76;99991.16;5035983;28;47286;-80
2023/07/15 08:59:41;;;;;;;;;1.00;1.00;;;;;24.30;50.82;99977.13;5036188;28;47637;-79
2023/07/15 09:02:07;;;;;;;;;1.50;1.00;;;;;24.32;50.05;99983.09;5035691;28;45885;-77
2023/07/15 09:04:33;;;;;;;;;1.00;1.00;;;;;24.33;50.02;99987.41;5035953;28;45609;-81
2023/07/15 09:06:59;;;;;;;;;1.00;0.00;;;;;24.31;50.24;99992.97;5035875;28;47574;-77
2023/07/15 09:09:36;;;;;;;;;1.00;1.00;;;;;24.32;50.17;99991.13;5036237;28;45623;-80
2023/07/15 09:12:04;;;;;;;;;0.25;0.00;;;;;24.29;50.19;99992.38;5036213;28;45665;-77
2023/07/15 09:17:53;;;;;;;;;0.00;0.00;;;;;24.27;49.60;99993.63;5035852;28;45627;-80
2023/07/15 09:20:21;;;;;;;;;1.00;0.75;;;;;24.27;49.35;99999.78;5051097;28;48258;-75
2023/07/15 09:23:05;;;;;;;;;1.25;1.00;;;;;24.24;49.32;100009.06;5034441;28;45678;-82
2023/07/15 09:25:30;;;;;;;;;1.00;1.00;;;;;24.23;49.39;100006.63;5035474;28;45658;-78
2023/07/15 09:27:55;;;;;;;;;1.50;1.00;;;;;24.21;49.12;100014.03;5036380;28;45715;-82
2023/07/15 09:30:21;;;;;;;;;1.25;1.00;;;;;24.20;49.42;100002.50;5035843;28;45934;-80
2023/07/15 09:32:47;;;;;;;;;2.00;1.00;;;;;24.18;49.71;99999.19;5035792;28;45691;-80
2023/07/15 09:35:14;;;;;;;;;3.00;2.00;;;;;24.19;49.67;100000.03;5035716;28;45620;-76
2023/07/15 09:37:40;;;;;;;;;2.50;1.25;;;;;24.21;49.62;99989.94;5033668;28;47627;-79
2023/07/15 09:40:07;;;;;;;;;3.75;3.00;;;;;24.23;49.54;99994.06;5035536;28;47250;-76
2023/07/15 09:43:02;;;;;;;;;1.75;1.25;;;;;24.25;49.81;99985.78;5034821;28;45613;-82
2023/07/15 09:45:38;;;;;;;;;1.00;1.00;;;;;24.24;49.86;99992.19;4993642;28;45814;-79
2023/07/15 09:48:05;;;;;;;;;1.25;1.25;;;;;24.24;49.67;99992.19;4993346;28;46951;-77
2023/07/15 09:50:33;;;;;;;;;2.00;1.00;;;;;24.27;50.36;99993.63;4993493;28;47478;-77
2023/07/15 09:52:59;;;;;;;;;1.00;1.00;;;;;24.29;50.20;99994.25;4993542;28;45558;-79
2023/07/15 09:55:25;;;;;;;;;1.00;1.00;;;;;24.29;50.43;99987.03;4993279;28;45911;-81
2023/07/15 09:57:56;;;;;;;;;2.00;1.00;;;;;24.34;50.68;100000.59;4993229;28;46628;-78
2023/07/15 10:00:23;;;;;;;;;2.75;2.25;;;;;24.40;50.47;99999.72;4993015;28;47067;-80
2023/07/15 10:02:56;;;;;;;;;2.00;1.00;;;;;24.46;49.77;100000.72;4976746;28;46281;-82
2023/07/15 10:05:23;;;;;;;;;2.00;2.00;;;;;24.49;50.04;99992.28;4993255;28;46031;-79
2023/07/15 10:07:51;;;;;;;;;2.00;2.00;;;;;24.52;50.66;100002.53;4993143;28;47422;-83
2023/07/15 10:10:19;;;;;;;;;1.75;1.50;;;;;24.54;50.26;100000.50;4993501;28;45855;-81
2023/07/15 10:12:45;;;;;;;;;2.75;2.00;;;;;24.58;50.34;100013.22;4993011;28;45735;-81
2023/07/15 10:15:11;;;;;;;;;3.00;2.00;;;;;24.59;50.62;100006.84;4992851;28;45631;-77
2023/07/15 10:17:37;;;;;;;;;3.00;2.00;;;;;24.64;50.13;100011.56;4976461;28;47372;-76
2023/07/15 10:20:04;;;;;;;;;2.25;2.00;;;;;24.65;50.01;100008.66;4992913;28;47047;-82
2023/07/15 10:22:34;;;;;;;;;2.75;2.00;;;;;24.73;49.55;99990.69;5019098;28;45606;-78
2023/07/15 10:25:03;;;;;;;;;3.00;2.00;;;;;24.79;49.16;99976.41;5034639;28;45573;-77
2023/07/15 10:27:30;;;;;;;;;1.75;1.00;;;;;24.83;49.25;99957.00;5034630;28;46445;-81
2023/07/15 10:33:24;;;;;;;;;2.25;2.00;;;;;24.98;48.57;99940.66;5034434;28;45625;-81
2023/07/15 10:35:52;;;;;;;;;3.00;2.00;;;;;25.04;48.55;99940.59;5035055;28;45709;-79
2023/07/15 10:38:24;;;;;;;;;1.00;1.00;;;;;25.15;48.21;99965.06;5034739;28;46636;-82
2023/07/15 10:40:57;;;;;;;;;1.75;1.75;;;;;25.23;48.04;99968.25;5034495;28;45603;-79
2023/07/15 10:43:34;;;;;;;;;5.25;3.25;;;;;25.37;47.85;99977.03;5034102;28;45600;-79
2023/07/15 10:46:19;;;;;;;;;47.25;33.75;;;;;25.49;47.59;99977.91;5034241;28;45599;-80
2023/07/15 10:48:45;;;;;;;;;26.50;25.50;;;;;25.58;47.29;99976.66;5034243;28;46381;-85
2023/07/15 10:51:11;;;;;;;;;32.75;28.00;;;;;25.62;46.86;99974.34;5034193;28;45721;-81
2023/07/15 10:53:37;;;;;;;;;41.00;31.25;;;;;25.64;46.94;99965.00;5033476;28;45758;-78
2023/07/15 10:56:09;;;;;;;;;16.75;12.25;;;;;25.71;46.96;99959.56;5034372;28;45877;-81
2023/07/15 10:58:35;;;;;;;;;2.25;2.00;;;;;25.77;46.70;99964.88;5034263;28;46388;-78
2023/07/15 11:01:04;;;;;;;;;3.00;2.75;;;;;25.81;46.49;99957.19;5034239;28;46010;-79
2023/07/15 11:03:35;;;;;;;;;5.00;5.00;;;;;25.88;46.12;99974.88;5034215;28;45635;-78
2023/07/15 11:06:02;;;;;;;;;2.25;2.00;;;;;25.92;45.96;99968.00;5034591;28;45674;-79
2023/07/15 11:08:28;;;;;;;;;5.50;5.00;;;;;25.99;46.42;99975.97;5034364;28;45590;-79
2023/07/15 11:11:03;;;;;;;;;3.50;3.00;;;;;26.06;46.20;99965.16;5034116;28;45492;-79
2023/07/15 11:13:29;;;;;;;;;2.25;2.25;;;;;26.12;45.41;99961.56;5034305;28;45546;-79
2023/07/15 11:15:56;;;;;;;;;3.75;3.00;;;;;26.16;46.06;99960.06;5034218;28;45540;-80
2023/07/15 11:18:26;;;;;;;;;4.25;3.00;;;;;26.18;45.91;99950.72;5034232;28;45550;-80
2023/07/15 11:20:53;;;;;;;;;4.00;4.00;;;;;26.23;45.94;99959.00;5034254;28;46016;-82
2023/07/15 11:23:19;;;;;;;;;4.00;2.00;;;;;26.22;45.46;99938.53;5034124;28;45609;-79
2023/07/15 11:25:45;;;;;;;;;2.00;2.00;;;;;26.24;45.46;99951.72;5032680;28;45515;-80
2023/07/15 11:28:11;;;;;;;;;2.00;2.00;;;;;26.21;45.71;99931.50;5034022;28;45752;-79
2023/07/15 11:33:58;;;;;;;;;3.25;2.00;;;;;26.23;45.54;99968.91;5034173;28;45627;-81
2023/07/15 11:36:23;;;;;;;;;3.00;3.00;;;;;26.22;45.69;99972.59;5034226;28;45696;-82
2023/07/15 11:38:49;;;;;;;;;2.50;2.50;;;;;26.25;45.88;99986.41;5035626;28;45545;-79
2023/07/15 11:41:15;;;;;;;;;3.00;2.00;;;;;26.27;45.85;99984.34;5034166;28;45564;-79
2023/07/15 11:43:40;;;;;;;;;3.50;2.00;;;;;26.30;45.71;99980.38;5034147;28;45690;-81
2023/07/15 11:46:05;;;;;;;;;3.00;2.25;;;;;26.33;45.32;99974.56;5034369;28;45611;-79
2023/07/15 11:48:33;;;;;;;;;1.00;1.00;;;;;26.38;45.50;99980.06;5034830;28;46663;-81
2023/07/15 11:51:06;;;;;;;;;2.50;2.00;;;;;26.43;45.36;99957.88;5034764;28;47009;-81
2023/07/15 11:53:33;;;;;;;;;1.00;1.00;;;;;26.48;45.32;99960.69;5034722;28;45512;-78
2023/07/15 11:55:59;;;;;;;;;1.00;1.00;;;;;26.55;44.15;99969.50;5033832;28;45760;-81
2023/07/15 12:05:25;;;;;;;;;2.75;2.50;;;;;26.64;44.26;99938.56;5035137;28;45800;-80
2023/07/15 12:07:52;;;;;;;;;1.00;1.00;;;;;26.68;44.67;99943.22;5037557;28;45694;-80
2023/07/15 12:10:20;;;;;;;;;2.00;2.00;;;;;26.74;44.15;99939.63;5037172;28;45620;-85
2023/07/15 12:12:46;;;;;;;;;2.00;1.00;;;;;26.81;44.24;99930.66;5037175;28;45989;-83
2023/07/15 12:18:33;;;;;;;;;3.25;2.00;;;;;26.92;43.77;99938.78;5037195;28;45650;-83
2023/07/15 12:20:58;;;;;;;;;1.75;1.25;;;;;26.95;43.98;99940.97;5037227;28;47012;-83
2023/07/15 12:23:24;;;;;;;;;1.50;1.50;;;;;27.03;43.65;99937.13;5036904;28;45808;-82
2023/07/15 12:25:50;;;;;;;;;1.00;1.00;;;;;27.06;44.01;99925.91;5037880;28;45544;-81
2023/07/15 12:28:15;;;;;;;;;2.00;2.00;;;;;27.11;43.70;99934.09;5037795;28;45544;-85
2023/07/15 12:34:02;;;;;;;;;1.50;1.50;;;;;27.23;43.74;99931.41;5037599;28;45656;-84
2023/07/15 12:36:28;;;;;;;;;1.00;1.00;;;;;27.27;43.58;99933.41;5037479;28;45559;-80
2023/07/15 12:38:53;;;;;;;;;0.75;0.75;;;;;27.30;43.00;99918.66;5037368;28;45597;-86
2023/07/15 12:41:19;;;;;;;;;1.75;1.50;;;;;27.33;42.60;99915.50;5035979;28;46641;-78
2023/07/15 12:43:44;;;;;;;;;1.00;1.00;;;;;27.36;42.59;99929.31;5036454;28;46281;-78
2023/07/15 12:49:31;;;;;;;;;4.00;1.00;;;;;27.41;42.62;99924.03;5036434;28;45747;-77
2023/07/15 12:51:56;;;;;;;;;2.00;2.00;;;;;27.39;42.49;99936.91;5036622;28;46315;-78
2023/07/15 12:54:22;;;;;;;;;2.00;1.25;;;;;27.33;42.16;99939.72;5035472;28;47849;-75
2023/07/15 12:56:47;;;;;;;;;1.00;0.75;;;;;27.24;42.17;99938.44;5035037;28;45477;-77